sensor_id;sensor_type;location;lat;lon;timestamp;P1;durP1;ratioP1;P2;durP2;ratioP2
69588;SDS011;56792;50.644;17.984;2024-01-06T00:01:34;63.00;;;31.50;;
69588;SDS011;56792;50.644;17.984;2024-01-06T00:04:05;65.30;;;30.60;;
69588;SDS011;56792;50.644;17.984;2024-01-06T00:06:36;70.00;;;34.00;;
69588;SDS011;56792;50.644;17.984;2024-01-06T00:09:07;73.40;;;33.00;;
69588;SDS011;56792;50.644;17.984;2024-01-06T00:11:38;64.30;;;31.70;;
69588;SDS011;56792;50.644;17.984;2024-01-06T00:14:09;61.90;;;31.30;;
69588;SDS011;56792;50.644;17.984;2024-01-06T00:16:40;69.80;;;35.10;;
69588;SDS011;56792;50.644;17.984;2024-01-06T00:19:12;65.50;;;32.80;;
69588;SDS011;56792;50.644;17.984;2024-01-06T00:21:43;58.60;;;31.20;;
69588;SDS011;56792;50.644;17.984;2024-01-06T00:24:14;56.50;;;30.30;;
69588;SDS011;56792;50.644;17.984;2024-01-06T00:26:45;56.50;;;29.30;;
69588;SDS011;56792;50.644;17.984;2024-01-06T00:29:16;55.60;;;29.10;;
69588;SDS011;56792;50.644;17.984;2024-01-06T00:31:47;53.30;;;28.90;;
69588;SDS011;56792;50.644;17.984;2024-01-06T00:34:18;57.90;;;29.40;;
69588;SDS011;56792;50.644;17.984;2024-01-06T00:36:49;57.20;;;28.10;;
69588;SDS011;56792;50.644;17.984;2024-01-06T00:39:21;60.40;;;31.40;;
69588;SDS011;56792;50.644;17.984;2024-01-06T00:41:52;60.30;;;33.80;;
69588;SDS011;56792;50.644;17.984;2024-01-06T00:44:23;65.20;;;33.70;;
69588;SDS011;56792;50.644;17.984;2024-01-06T00:46:54;59.70;;;32.50;;
69588;SDS011;56792;50.644;17.984;2024-01-06T00:49:25;67.50;;;35.30;;
69588;SDS011;56792;50.644;17.984;2024-01-06T00:51:56;72.70;;;35.00;;
69588;SDS011;56792;50.644;17.984;2024-01-06T00:54:27;70.20;;;34.00;;
69588;SDS011;56792;50.644;17.984;2024-01-06T00:56:58;67.50;;;33.30;;
69588;SDS011;56792;50.644;17.984;2024-01-06T00:59:30;65.60;;;33.60;;
69588;SDS011;56792;50.644;17.984;2024-01-06T01:02:01;66.40;;;35.10;;
69588;SDS011;56792;50.644;17.984;2024-01-06T01:04:32;55.50;;;29.60;;
69588;SDS011;56792;50.644;17.984;2024-01-06T01:07:03;65.40;;;32.00;;
69588;SDS011;56792;50.644;17.984;2024-01-06T01:09:34;61.30;;;31.20;;
69588;SDS011;56792;50.644;17.984;2024-01-06T01:12:06;68.80;;;35.40;;
69588;SDS011;56792;50.644;17.984;2024-01-06T01:14:37;64.60;;;33.90;;
69588;SDS011;56792;50.644;17.984;2024-01-06T01:17:08;71.30;;;37.50;;
69588;SDS011;56792;50.644;17.984;2024-01-06T01:19:39;69.80;;;36.90;;
69588;SDS011;56792;50.644;17.984;2024-01-06T01:22:10;64.00;;;33.20;;
69588;SDS011;56792;50.644;17.984;2024-01-06T01:24:42;64.60;;;35.50;;
69588;SDS011;56792;50.644;17.984;2024-01-06T01:27:13;68.10;;;34.00;;
69588;SDS011;56792;50.644;17.984;2024-01-06T01:29:44;63.60;;;34.10;;
69588;SDS011;56792;50.644;17.984;2024-01-06T01:32:16;74.10;;;38.60;;
69588;SDS011;56792;50.644;17.984;2024-01-06T01:34:47;72.50;;;35.70;;
69588;SDS011;56792;50.644;17.984;2024-01-06T01:37:18;75.80;;;39.00;;
69588;SDS011;56792;50.644;17.984;2024-01-06T01:39:50;68.40;;;33.40;;
69588;SDS011;56792;50.644;17.984;2024-01-06T01:42:21;57.70;;;32.20;;
69588;SDS011;56792;50.644;17.984;2024-01-06T01:44:52;67.90;;;34.30;;
69588;SDS011;56792;50.644;17.984;2024-01-06T01:47:23;64.40;;;33.10;;
69588;SDS011;56792;50.644;17.984;2024-01-06T01:49:55;62.10;;;31.20;;
69588;SDS011;56792;50.644;17.984;2024-01-06T01:52:26;57.70;;;29.90;;
69588;SDS011;56792;50.644;17.984;2024-01-06T01:54:58;57.30;;;29.90;;
69588;SDS011;56792;50.644;17.984;2024-01-06T01:57:29;60.30;;;30.20;;
69588;SDS011;56792;50.644;17.984;2024-01-06T02:00:02;62.30;;;30.90;;
69588;SDS011;56792;50.644;17.984;2024-01-06T02:02:40;74.90;;;35.70;;
69588;SDS011;56792;50.644;17.984;2024-01-06T02:05:11;95.40;;;43.50;;
69588;SDS011;56792;50.644;17.984;2024-01-06T02:07:42;97.10;;;43.60;;
69588;SDS011;56792;50.644;17.984;2024-01-06T02:10:13;91.60;;;40.50;;
69588;SDS011;56792;50.644;17.984;2024-01-06T02:12:44;88.50;;;39.90;;
69588;SDS011;56792;50.644;17.984;2024-01-06T02:15:16;87.00;;;40.10;;
69588;SDS011;56792;50.644;17.984;2024-01-06T02:17:47;105.50;;;45.10;;
69588;SDS011;56792;50.644;17.984;2024-01-06T02:20:19;131.80;;;54.70;;
69588;SDS011;56792;50.644;17.984;2024-01-06T02:22:52;130.20;;;55.70;;
69588;SDS011;56792;50.644;17.984;2024-01-06T02:25:24;134.50;;;55.60;;
69588;SDS011;56792;50.644;17.984;2024-01-06T02:27:55;124.20;;;52.40;;
69588;SDS011;56792;50.644;17.984;2024-01-06T02:30:27;98.70;;;43.00;;
69588;SDS011;56792;50.644;17.984;2024-01-06T02:32:58;79.60;;;37.00;;
69588;SDS011;56792;50.644;17.984;2024-01-06T02:35:29;77.50;;;36.00;;
69588;SDS011;56792;50.644;17.984;2024-01-06T02:38:00;79.60;;;38.00;;
69588;SDS011;56792;50.644;17.984;2024-01-06T02:40:31;76.10;;;35.90;;
69588;SDS011;56792;50.644;17.984;2024-01-06T02:43:02;76.50;;;37.30;;
69588;SDS011;56792;50.644;17.984;2024-01-06T02:45:34;76.20;;;36.90;;
69588;SDS011;56792;50.644;17.984;2024-01-06T02:48:06;79.20;;;36.70;;
69588;SDS011;56792;50.644;17.984;2024-01-06T02:50:37;106.80;;;41.40;;
69588;SDS011;56792;50.644;17.984;2024-01-06T02:53:08;120.30;;;44.00;;
69588;SDS011;56792;50.644;17.984;2024-01-06T02:55:40;134.10;;;44.30;;
69588;SDS011;56792;50.644;17.984;2024-01-06T02:58:12;123.60;;;45.80;;
69588;SDS011;56792;50.644;17.984;2024-01-06T03:00:43;101.00;;;39.00;;
69588;SDS011;56792;50.644;17.984;2024-01-06T03:03:14;91.40;;;36.90;;
69588;SDS011;56792;50.644;17.984;2024-01-06T03:05:45;100.40;;;39.50;;
69588;SDS011;56792;50.644;17.984;2024-01-06T03:08:17;91.40;;;37.30;;
69588;SDS011;56792;50.644;17.984;2024-01-06T03:10:48;86.30;;;35.00;;
69588;SDS011;56792;50.644;17.984;2024-01-06T03:13:19;77.50;;;32.30;;
69588;SDS011;56792;50.644;17.984;2024-01-06T03:15:50;69.90;;;32.10;;
69588;SDS011;56792;50.644;17.984;2024-01-06T03:18:21;64.90;;;30.50;;
69588;SDS011;56792;50.644;17.984;2024-01-06T03:20:52;70.90;;;30.40;;
69588;SDS011;56792;50.644;17.984;2024-01-06T03:23:23;77.90;;;33.60;;
69588;SDS011;56792;50.644;17.984;2024-01-06T03:25:54;73.30;;;30.40;;
69588;SDS011;56792;50.644;17.984;2024-01-06T03:28:25;80.40;;;33.10;;
69588;SDS011;56792;50.644;17.984;2024-01-06T03:30:57;81.50;;;34.50;;
69588;SDS011;56792;50.644;17.984;2024-01-06T03:33:28;82.10;;;35.30;;
69588;SDS011;56792;50.644;17.984;2024-01-06T03:35:59;78.10;;;33.40;;
69588;SDS011;56792;50.644;17.984;2024-01-06T03:38:35;79.40;;;34.30;;
69588;SDS011;56792;50.644;17.984;2024-01-06T03:41:06;84.60;;;35.50;;
69588;SDS011;56792;50.644;17.984;2024-01-06T03:43:37;71.10;;;30.40;;
69588;SDS011;56792;50.644;17.984;2024-01-06T03:46:08;68.80;;;31.00;;
69588;SDS011;56792;50.644;17.984;2024-01-06T03:48:39;71.70;;;32.10;;
69588;SDS011;56792;50.644;17.984;2024-01-06T03:51:11;79.30;;;33.80;;
69588;SDS011;56792;50.644;17.984;2024-01-06T03:53:43;112.10;;;40.20;;
69588;SDS011;56792;50.644;17.984;2024-01-06T03:56:14;152.20;;;51.10;;
69588;SDS011;56792;50.644;17.984;2024-01-06T03:58:46;127.00;;;46.00;;
69588;SDS011;56792;50.644;17.984;2024-01-06T04:01:17;99.70;;;41.20;;
69588;SDS011;56792;50.644;17.984;2024-01-06T04:03:49;95.10;;;38.70;;
69588;SDS011;56792;50.644;17.984;2024-01-06T04:06:20;71.00;;;32.10;;
69588;SDS011;56792;50.644;17.984;2024-01-06T04:08:51;66.50;;;31.30;;
69588;SDS011;56792;50.644;17.984;2024-01-06T04:11:23;69.30;;;30.30;;
69588;SDS011;56792;50.644;17.984;2024-01-06T04:13:54;61.30;;;28.70;;
69588;SDS011;56792;50.644;17.984;2024-01-06T04:16:27;63.50;;;30.00;;
69588;SDS011;56792;50.644;17.984;2024-01-06T04:18:58;69.80;;;30.60;;
69588;SDS011;56792;50.644;17.984;2024-01-06T04:21:29;90.70;;;35.50;;
69588;SDS011;56792;50.644;17.984;2024-01-06T04:24:00;76.80;;;32.70;;
69588;SDS011;56792;50.644;17.984;2024-01-06T04:26:31;72.60;;;30.70;;
69588;SDS011;56792;50.644;17.984;2024-01-06T04:29:02;66.40;;;29.20;;
69588;SDS011;56792;50.644;17.984;2024-01-06T04:31:33;59.50;;;28.90;;
69588;SDS011;56792;50.644;17.984;2024-01-06T04:34:04;65.50;;;29.90;;
69588;SDS011;56792;50.644;17.984;2024-01-06T04:36:35;65.80;;;31.80;;
69588;SDS011;56792;50.644;17.984;2024-01-06T04:39:06;68.50;;;32.20;;
69588;SDS011;56792;50.644;17.984;2024-01-06T04:41:37;75.20;;;33.40;;
69588;SDS011;56792;50.644;17.984;2024-01-06T04:44:08;73.90;;;34.50;;
69588;SDS011;56792;50.644;17.984;2024-01-06T04:46:40;70.40;;;32.70;;
69588;SDS011;56792;50.644;17.984;2024-01-06T04:49:11;74.10;;;34.90;;
69588;SDS011;56792;50.644;17.984;2024-01-06T04:51:42;80.50;;;34.80;;
69588;SDS011;56792;50.644;17.984;2024-01-06T04:54:13;70.40;;;34.10;;
69588;SDS011;56792;50.644;17.984;2024-01-06T04:56:44;70.30;;;32.60;;
69588;SDS011;56792;50.644;17.984;2024-01-06T04:59:16;62.30;;;30.40;;
69588;SDS011;56792;50.644;17.984;2024-01-06T05:01:47;61.40;;;29.00;;
69588;SDS011;56792;50.644;17.984;2024-01-06T05:04:19;61.50;;;27.00;;
69588;SDS011;56792;50.644;17.984;2024-01-06T05:06:51;55.10;;;25.60;;
69588;SDS011;56792;50.644;17.984;2024-01-06T05:09:23;61.80;;;28.60;;
69588;SDS011;56792;50.644;17.984;2024-01-06T05:11:54;62.40;;;28.70;;
69588;SDS011;56792;50.644;17.984;2024-01-06T05:14:25;62.90;;;28.80;;
69588;SDS011;56792;50.644;17.984;2024-01-06T05:16:56;55.80;;;27.10;;
69588;SDS011;56792;50.644;17.984;2024-01-06T05:19:27;58.20;;;29.70;;
69588;SDS011;56792;50.644;17.984;2024-01-06T05:21:59;63.80;;;29.90;;
69588;SDS011;56792;50.644;17.984;2024-01-06T05:24:30;66.90;;;31.70;;
69588;SDS011;56792;50.644;17.984;2024-01-06T05:27:01;72.30;;;32.50;;
69588;SDS011;56792;50.644;17.984;2024-01-06T05:29:32;68.70;;;32.10;;
69588;SDS011;56792;50.644;17.984;2024-01-06T05:32:04;67.70;;;31.30;;
69588;SDS011;56792;50.644;17.984;2024-01-06T05:34:36;68.20;;;30.70;;
69588;SDS011;56792;50.644;17.984;2024-01-06T05:37:07;64.30;;;29.10;;
69588;SDS011;56792;50.644;17.984;2024-01-06T05:39:39;68.60;;;31.10;;
69588;SDS011;56792;50.644;17.984;2024-01-06T05:42:11;63.60;;;29.80;;
69588;SDS011;56792;50.644;17.984;2024-01-06T05:44:44;60.00;;;30.20;;
69588;SDS011;56792;50.644;17.984;2024-01-06T05:47:15;61.40;;;30.10;;
69588;SDS011;56792;50.644;17.984;2024-01-06T05:49:46;66.90;;;30.50;;
69588;SDS011;56792;50.644;17.984;2024-01-06T05:52:17;65.00;;;30.20;;
69588;SDS011;56792;50.644;17.984;2024-01-06T05:54:48;66.60;;;30.60;;
69588;SDS011;56792;50.644;17.984;2024-01-06T05:57:19;68.80;;;29.60;;
69588;SDS011;56792;50.644;17.984;2024-01-06T05:59:51;75.10;;;33.60;;
69588;SDS011;56792;50.644;17.984;2024-01-06T06:02:22;67.40;;;29.90;;
69588;SDS011;56792;50.644;17.984;2024-01-06T06:04:53;67.70;;;30.40;;
69588;SDS011;56792;50.644;17.984;2024-01-06T06:07:24;87.90;;;42.50;;
69588;SDS011;56792;50.644;17.984;2024-01-06T06:09:55;128.70;;;61.00;;
69588;SDS011;56792;50.644;17.984;2024-01-06T06:12:26;101.60;;;50.10;;
69588;SDS011;56792;50.644;17.984;2024-01-06T06:14:57;72.20;;;35.60;;
69588;SDS011;56792;50.644;17.984;2024-01-06T06:17:28;73.00;;;33.80;;
69588;SDS011;56792;50.644;17.984;2024-01-06T06:20:00;64.30;;;30.80;;
69588;SDS011;56792;50.644;17.984;2024-01-06T06:22:31;72.10;;;30.40;;
69588;SDS011;56792;50.644;17.984;2024-01-06T06:25:02;67.30;;;30.90;;
69588;SDS011;56792;50.644;17.984;2024-01-06T06:27:34;65.80;;;28.80;;
69588;SDS011;56792;50.644;17.984;2024-01-06T06:30:08;57.20;;;26.70;;
69588;SDS011;56792;50.644;17.984;2024-01-06T06:32:40;48.80;;;23.70;;
69588;SDS011;56792;50.644;17.984;2024-01-06T06:35:11;59.10;;;26.50;;
69588;SDS011;56792;50.644;17.984;2024-01-06T06:37:42;51.50;;;25.40;;
69588;SDS011;56792;50.644;17.984;2024-01-06T06:40:14;52.90;;;24.40;;
69588;SDS011;56792;50.644;17.984;2024-01-06T06:42:45;58.30;;;25.20;;
69588;SDS011;56792;50.644;17.984;2024-01-06T06:45:16;56.10;;;27.10;;
69588;SDS011;56792;50.644;17.984;2024-01-06T06:47:50;58.70;;;26.80;;
69588;SDS011;56792;50.644;17.984;2024-01-06T06:50:21;65.40;;;28.50;;
69588;SDS011;56792;50.644;17.984;2024-01-06T06:52:53;63.80;;;28.70;;
69588;SDS011;56792;50.644;17.984;2024-01-06T06:55:24;54.00;;;26.90;;
69588;SDS011;56792;50.644;17.984;2024-01-06T06:57:55;67.90;;;30.20;;
69588;SDS011;56792;50.644;17.984;2024-01-06T07:00:26;65.60;;;30.10;;
69588;SDS011;56792;50.644;17.984;2024-01-06T07:02:57;64.20;;;30.10;;
69588;SDS011;56792;50.644;17.984;2024-01-06T07:05:28;67.40;;;28.50;;
69588;SDS011;56792;50.644;17.984;2024-01-06T07:08:01;62.30;;;28.10;;
69588;SDS011;56792;50.644;17.984;2024-01-06T07:10:32;64.00;;;28.30;;
69588;SDS011;56792;50.644;17.984;2024-01-06T07:13:03;60.90;;;30.30;;
69588;SDS011;56792;50.644;17.984;2024-01-06T07:15:35;53.90;;;26.00;;
69588;SDS011;56792;50.644;17.984;2024-01-06T07:18:06;54.10;;;26.50;;
69588;SDS011;56792;50.644;17.984;2024-01-06T07:20:37;62.90;;;31.00;;
69588;SDS011;56792;50.644;17.984;2024-01-06T07:23:08;60.40;;;29.80;;
69588;SDS011;56792;50.644;17.984;2024-01-06T07:25:40;59.70;;;29.60;;
69588;SDS011;56792;50.644;17.984;2024-01-06T07:28:12;56.60;;;27.40;;
69588;SDS011;56792;50.644;17.984;2024-01-06T07:30:43;57.40;;;27.20;;
69588;SDS011;56792;50.644;17.984;2024-01-06T07:33:14;60.50;;;27.00;;
69588;SDS011;56792;50.644;17.984;2024-01-06T07:35:45;59.70;;;25.90;;
69588;SDS011;56792;50.644;17.984;2024-01-06T07:38:16;56.50;;;25.90;;
69588;SDS011;56792;50.644;17.984;2024-01-06T07:40:47;55.40;;;25.70;;
69588;SDS011;56792;50.644;17.984;2024-01-06T07:43:18;55.30;;;24.70;;
69588;SDS011;56792;50.644;17.984;2024-01-06T07:45:49;54.10;;;24.50;;
69588;SDS011;56792;50.644;17.984;2024-01-06T07:48:20;56.60;;;25.90;;
69588;SDS011;56792;50.644;17.984;2024-01-06T07:50:52;56.90;;;25.70;;
69588;SDS011;56792;50.644;17.984;2024-01-06T07:53:23;54.00;;;24.70;;
69588;SDS011;56792;50.644;17.984;2024-01-06T07:55:54;49.10;;;25.20;;
69588;SDS011;56792;50.644;17.984;2024-01-06T07:58:26;62.00;;;29.20;;
69588;SDS011;56792;50.644;17.984;2024-01-06T08:00:57;66.10;;;27.50;;
69588;SDS011;56792;50.644;17.984;2024-01-06T08:03:29;57.40;;;27.10;;
69588;SDS011;56792;50.644;17.984;2024-01-06T08:06:00;71.80;;;32.50;;
69588;SDS011;56792;50.644;17.984;2024-01-06T08:08:32;60.30;;;27.70;;
69588;SDS011;56792;50.644;17.984;2024-01-06T08:11:04;55.70;;;25.40;;
69588;SDS011;56792;50.644;17.984;2024-01-06T08:13:35;51.40;;;25.10;;
69588;SDS011;56792;50.644;17.984;2024-01-06T08:16:06;59.50;;;24.90;;
69588;SDS011;56792;50.644;17.984;2024-01-06T08:18:37;51.70;;;25.60;;
69588;SDS011;56792;50.644;17.984;2024-01-06T08:21:08;60.40;;;26.60;;
69588;SDS011;56792;50.644;17.984;2024-01-06T08:23:39;66.80;;;29.40;;
69588;SDS011;56792;50.644;17.984;2024-01-06T08:26:11;55.80;;;25.80;;
69588;SDS011;56792;50.644;17.984;2024-01-06T08:28:42;55.40;;;26.00;;
69588;SDS011;56792;50.644;17.984;2024-01-06T08:31:13;51.10;;;23.90;;
69588;SDS011;56792;50.644;17.984;2024-01-06T08:33:44;57.40;;;26.30;;
69588;SDS011;56792;50.644;17.984;2024-01-06T08:36:15;55.90;;;27.80;;
69588;SDS011;56792;50.644;17.984;2024-01-06T08:38:46;57.30;;;26.90;;
69588;SDS011;56792;50.644;17.984;2024-01-06T08:41:17;61.80;;;27.50;;
69588;SDS011;56792;50.644;17.984;2024-01-06T08:43:49;64.20;;;28.70;;
69588;SDS011;56792;50.644;17.984;2024-01-06T08:46:20;53.40;;;24.60;;
69588;SDS011;56792;50.644;17.984;2024-01-06T08:48:52;62.80;;;29.10;;
69588;SDS011;56792;50.644;17.984;2024-01-06T08:51:23;63.00;;;30.70;;
69588;SDS011;56792;50.644;17.984;2024-01-06T08:53:54;64.80;;;27.90;;
69588;SDS011;56792;50.644;17.984;2024-01-06T08:56:25;67.10;;;29.50;;
69588;SDS011;56792;50.644;17.984;2024-01-06T08:58:56;66.80;;;30.30;;
69588;SDS011;56792;50.644;17.984;2024-01-06T09:01:27;71.40;;;28.10;;
69588;SDS011;56792;50.644;17.984;2024-01-06T09:03:59;70.70;;;29.90;;
69588;SDS011;56792;50.644;17.984;2024-01-06T09:06:30;72.70;;;32.20;;
69588;SDS011;56792;50.644;17.984;2024-01-06T09:09:01;67.50;;;30.90;;
69588;SDS011;56792;50.644;17.984;2024-01-06T09:11:34;67.70;;;31.00;;
69588;SDS011;56792;50.644;17.984;2024-01-06T09:14:05;68.20;;;29.70;;
69588;SDS011;56792;50.644;17.984;2024-01-06T09:16:36;59.50;;;26.80;;
69588;SDS011;56792;50.644;17.984;2024-01-06T09:19:07;67.30;;;29.60;;
69588;SDS011;56792;50.644;17.984;2024-01-06T09:21:38;72.10;;;31.30;;
69588;SDS011;56792;50.644;17.984;2024-01-06T09:24:09;75.90;;;34.70;;
69588;SDS011;56792;50.644;17.984;2024-01-06T09:26:40;81.60;;;34.90;;
69588;SDS011;56792;50.644;17.984;2024-01-06T09:29:12;67.70;;;28.60;;
69588;SDS011;56792;50.644;17.984;2024-01-06T09:31:44;61.10;;;27.10;;
69588;SDS011;56792;50.644;17.984;2024-01-06T09:34:15;63.00;;;28.10;;
69588;SDS011;56792;50.644;17.984;2024-01-06T09:36:46;56.00;;;26.70;;
69588;SDS011;56792;50.644;17.984;2024-01-06T09:39:17;55.00;;;24.40;;
69588;SDS011;56792;50.644;17.984;2024-01-06T09:41:48;63.50;;;26.00;;
69588;SDS011;56792;50.644;17.984;2024-01-06T09:44:19;55.70;;;25.00;;
69588;SDS011;56792;50.644;17.984;2024-01-06T09:46:51;57.50;;;28.80;;
69588;SDS011;56792;50.644;17.984;2024-01-06T09:49:24;57.20;;;26.80;;
69588;SDS011;56792;50.644;17.984;2024-01-06T09:52:00;66.40;;;29.90;;
69588;SDS011;56792;50.644;17.984;2024-01-06T09:54:35;70.70;;;31.10;;
69588;SDS011;56792;50.644;17.984;2024-01-06T09:57:10;91.70;;;39.60;;
69588;SDS011;56792;50.644;17.984;2024-01-06T09:59:42;86.00;;;36.10;;
69588;SDS011;56792;50.644;17.984;2024-01-06T10:02:16;53.30;;;26.90;;
69588;SDS011;56792;50.644;17.984;2024-01-06T10:04:48;50.30;;;23.70;;
69588;SDS011;56792;50.644;17.984;2024-01-06T10:07:20;47.70;;;23.30;;
69588;SDS011;56792;50.644;17.984;2024-01-06T10:09:51;50.40;;;23.80;;
69588;SDS011;56792;50.644;17.984;2024-01-06T10:12:27;44.20;;;21.50;;
69588;SDS011;56792;50.644;17.984;2024-01-06T10:14:58;47.60;;;23.60;;
69588;SDS011;56792;50.644;17.984;2024-01-06T10:17:29;47.60;;;21.70;;
69588;SDS011;56792;50.644;17.984;2024-01-06T10:20:00;47.50;;;24.30;;
69588;SDS011;56792;50.644;17.984;2024-01-06T10:22:32;49.20;;;22.60;;
69588;SDS011;56792;50.644;17.984;2024-01-06T10:25:07;48.80;;;21.80;;
69588;SDS011;56792;50.644;17.984;2024-01-06T10:27:40;47.30;;;22.40;;
69588;SDS011;56792;50.644;17.984;2024-01-06T10:30:12;49.40;;;23.80;;
69588;SDS011;56792;50.644;17.984;2024-01-06T10:32:46;45.30;;;23.00;;
69588;SDS011;56792;50.644;17.984;2024-01-06T10:35:19;45.70;;;22.10;;
69588;SDS011;56792;50.644;17.984;2024-01-06T10:37:50;43.80;;;20.60;;
69588;SDS011;56792;50.644;17.984;2024-01-06T10:40:23;50.90;;;21.50;;
69588;SDS011;56792;50.644;17.984;2024-01-06T10:42:55;42.40;;;22.00;;
69588;SDS011;56792;50.644;17.984;2024-01-06T10:45:29;46.50;;;22.20;;
69588;SDS011;56792;50.644;17.984;2024-01-06T10:48:01;52.10;;;23.40;;
69588;SDS011;56792;50.644;17.984;2024-01-06T10:50:34;39.70;;;20.60;;
69588;SDS011;56792;50.644;17.984;2024-01-06T10:53:06;50.20;;;24.30;;
69588;SDS011;56792;50.644;17.984;2024-01-06T10:55:39;43.30;;;21.10;;
69588;SDS011;56792;50.644;17.984;2024-01-06T10:58:11;45.60;;;20.40;;
69588;SDS011;56792;50.644;17.984;2024-01-06T11:00:44;51.10;;;22.80;;
69588;SDS011;56792;50.644;17.984;2024-01-06T11:03:16;43.80;;;20.60;;
69588;SDS011;56792;50.644;17.984;2024-01-06T11:05:48;45.90;;;22.70;;
69588;SDS011;56792;50.644;17.984;2024-01-06T11:08:20;43.20;;;20.70;;
69588;SDS011;56792;50.644;17.984;2024-01-06T11:10:52;40.40;;;19.90;;
69588;SDS011;56792;50.644;17.984;2024-01-06T11:13:25;42.70;;;22.10;;
69588;SDS011;56792;50.644;17.984;2024-01-06T11:15:56;61.20;;;27.80;;
69588;SDS011;56792;50.644;17.984;2024-01-06T11:18:35;63.50;;;29.30;;
69588;SDS011;56792;50.644;17.984;2024-01-06T11:21:21;55.40;;;26.50;;
69588;SDS011;56792;50.644;17.984;2024-01-06T11:24:16;53.00;;;24.60;;
69588;SDS011;56792;50.644;17.984;2024-01-06T11:26:53;62.30;;;26.10;;
69588;SDS011;56792;50.644;17.984;2024-01-06T11:29:26;57.80;;;24.10;;
69588;SDS011;56792;50.644;17.984;2024-01-06T11:32:26;51.40;;;23.80;;
69588;SDS011;56792;50.644;17.984;2024-01-06T11:35:08;52.70;;;23.00;;
69588;SDS011;56792;50.644;17.984;2024-01-06T11:37:54;46.50;;;21.80;;
69588;SDS011;56792;50.644;17.984;2024-01-06T11:40:32;52.30;;;23.20;;
69588;SDS011;56792;50.644;17.984;2024-01-06T11:43:06;50.10;;;22.80;;
69588;SDS011;56792;50.644;17.984;2024-01-06T11:45:40;50.10;;;22.00;;
69588;SDS011;56792;50.644;17.984;2024-01-06T11:48:12;46.30;;;21.90;;
69588;SDS011;56792;50.644;17.984;2024-01-06T11:50:45;51.90;;;24.90;;
69588;SDS011;56792;50.644;17.984;2024-01-06T11:53:16;62.60;;;26.90;;
69588;SDS011;56792;50.644;17.984;2024-01-06T11:55:49;47.50;;;22.60;;
69588;SDS011;56792;50.644;17.984;2024-01-06T11:58:21;40.20;;;19.40;;
69588;SDS011;56792;50.644;17.984;2024-01-06T12:00:57;40.50;;;19.90;;
69588;SDS011;56792;50.644;17.984;2024-01-06T12:03:28;39.40;;;18.70;;
69588;SDS011;56792;50.644;17.984;2024-01-06T12:06:03;45.90;;;21.70;;
69588;SDS011;56792;50.644;17.984;2024-01-06T12:08:37;40.50;;;20.80;;
69588;SDS011;56792;50.644;17.984;2024-01-06T12:11:09;57.30;;;26.30;;
69588;SDS011;56792;50.644;17.984;2024-01-06T12:13:40;51.20;;;24.10;;
69588;SDS011;56792;50.644;17.984;2024-01-06T12:16:11;42.50;;;21.20;;
69588;SDS011;56792;50.644;17.984;2024-01-06T12:18:42;46.60;;;21.60;;
69588;SDS011;56792;50.644;17.984;2024-01-06T12:21:13;43.60;;;19.90;;
69588;SDS011;56792;50.644;17.984;2024-01-06T12:23:44;45.80;;;22.20;;
69588;SDS011;56792;50.644;17.984;2024-01-06T12:26:15;44.60;;;20.70;;
69588;SDS011;56792;50.644;17.984;2024-01-06T12:28:48;38.40;;;20.20;;
69588;SDS011;56792;50.644;17.984;2024-01-06T12:31:20;35.50;;;17.90;;
69588;SDS011;56792;50.644;17.984;2024-01-06T12:33:52;42.70;;;20.20;;
69588;SDS011;56792;50.644;17.984;2024-01-06T12:36:23;38.50;;;19.20;;
69588;SDS011;56792;50.644;17.984;2024-01-06T12:38:54;42.70;;;18.60;;
69588;SDS011;56792;50.644;17.984;2024-01-06T12:41:26;38.50;;;20.20;;
69588;SDS011;56792;50.644;17.984;2024-01-06T12:43:58;38.50;;;19.50;;
69588;SDS011;56792;50.644;17.984;2024-01-06T12:46:30;36.90;;;19.00;;
69588;SDS011;56792;50.644;17.984;2024-01-06T12:49:01;34.00;;;17.80;;
69588;SDS011;56792;50.644;17.984;2024-01-06T12:51:32;37.90;;;19.80;;
69588;SDS011;56792;50.644;17.984;2024-01-06T12:54:03;68.40;;;29.40;;
69588;SDS011;56792;50.644;17.984;2024-01-06T12:56:35;106.10;;;38.90;;
69588;SDS011;56792;50.644;17.984;2024-01-06T12:59:06;92.70;;;35.10;;
69588;SDS011;56792;50.644;17.984;2024-01-06T13:01:37;76.20;;;31.00;;
69588;SDS011;56792;50.644;17.984;2024-01-06T13:04:08;53.50;;;22.80;;
69588;SDS011;56792;50.644;17.984;2024-01-06T13:06:40;48.70;;;21.50;;
69588;SDS011;56792;50.644;17.984;2024-01-06T13:09:11;47.70;;;22.70;;
69588;SDS011;56792;50.644;17.984;2024-01-06T13:11:44;46.60;;;21.00;;
69588;SDS011;56792;50.644;17.984;2024-01-06T13:14:15;43.10;;;21.10;;
69588;SDS011;56792;50.644;17.984;2024-01-06T13:16:47;46.30;;;20.90;;
69588;SDS011;56792;50.644;17.984;2024-01-06T13:19:18;40.10;;;18.50;;
69588;SDS011;56792;50.644;17.984;2024-01-06T13:21:49;48.60;;;23.30;;
69588;SDS011;56792;50.644;17.984;2024-01-06T13:24:21;48.70;;;22.30;;
69588;SDS011;56792;50.644;17.984;2024-01-06T13:26:53;43.40;;;21.80;;
69588;SDS011;56792;50.644;17.984;2024-01-06T13:29:26;44.90;;;20.60;;
69588;SDS011;56792;50.644;17.984;2024-01-06T13:31:57;44.40;;;22.40;;
69588;SDS011;56792;50.644;17.984;2024-01-06T13:34:29;44.00;;;20.90;;
69588;SDS011;56792;50.644;17.984;2024-01-06T13:37:00;47.80;;;21.80;;
69588;SDS011;56792;50.644;17.984;2024-01-06T13:39:31;42.60;;;22.10;;
69588;SDS011;56792;50.644;17.984;2024-01-06T13:42:04;46.90;;;21.40;;
69588;SDS011;56792;50.644;17.984;2024-01-06T13:44:35;50.50;;;22.50;;
69588;SDS011;56792;50.644;17.984;2024-01-06T13:47:07;48.00;;;24.20;;
69588;SDS011;56792;50.644;17.984;2024-01-06T13:49:38;51.50;;;23.80;;
69588;SDS011;56792;50.644;17.984;2024-01-06T13:52:09;51.40;;;24.00;;
69588;SDS011;56792;50.644;17.984;2024-01-06T13:54:40;55.10;;;25.60;;
69588;SDS011;56792;50.644;17.984;2024-01-06T13:57:12;53.40;;;26.10;;
69588;SDS011;56792;50.644;17.984;2024-01-06T13:59:43;67.90;;;29.90;;
69588;SDS011;56792;50.644;17.984;2024-01-06T14:02:14;79.90;;;33.20;;
69588;SDS011;56792;50.644;17.984;2024-01-06T14:04:46;78.20;;;31.50;;
69588;SDS011;56792;50.644;17.984;2024-01-06T14:07:17;58.70;;;28.00;;
69588;SDS011;56792;50.644;17.984;2024-01-06T14:09:49;52.40;;;24.20;;
69588;SDS011;56792;50.644;17.984;2024-01-06T14:12:20;54.50;;;24.10;;
69588;SDS011;56792;50.644;17.984;2024-01-06T14:14:52;55.60;;;25.10;;
69588;SDS011;56792;50.644;17.984;2024-01-06T14:17:23;52.90;;;24.40;;
69588;SDS011;56792;50.644;17.984;2024-01-06T14:19:54;50.80;;;23.20;;
69588;SDS011;56792;50.644;17.984;2024-01-06T14:22:25;47.70;;;22.20;;
69588;SDS011;56792;50.644;17.984;2024-01-06T14:24:56;57.90;;;25.10;;
69588;SDS011;56792;50.644;17.984;2024-01-06T14:27:27;49.90;;;23.10;;
69588;SDS011;56792;50.644;17.984;2024-01-06T14:29:58;49.30;;;23.10;;
69588;SDS011;56792;50.644;17.984;2024-01-06T14:32:29;50.30;;;22.90;;
69588;SDS011;56792;50.644;17.984;2024-01-06T14:35:01;56.90;;;24.50;;